EBCI/CRL METAR and TAF weather

Enter ICAO airport designator
Station Type Date Time Source
EBCI METAR 2018/01/19 17:20 UTC NOAA

EBCI 191720Z 22010KT 9999 FEW022 SCT035 03/01 Q1010 TEMPO -SHSNRA BKN012


Station Type Date Time Source
EBCI Decoded METAR 2018/01/19 17:20 UTC NOAA

Charleroi / Gosselies, Belgium (EBCI) 50-28N 004-27E 192M
Jan 19, 2018 - 12:20 PM EST / 2018.01.19 1720 UTC
Wind: from the SW (220 degrees) at 12 MPH (10 KT):0
Visibility: greater than 7 mile(s):0
Sky conditions: partly cloudy
Temperature: 37 F (3 C)
Dew Point: 33 F (1 C)
Relative Humidity: 86%
Pressure (altimeter): 29.83 in. Hg (1010 hPa)
ob: EBCI 191720Z 22010KT 9999 FEW022 SCT035 03/01 Q1010 TEMPO -SHSNRA BKN012
cycle: 17

Station Type Date Time Source
EBCI TAF 2018/01/19 18:27 UTC NOAA

TAF EBCI 191720Z 1918/2024 22010KT 9999 FEW024 PROB30
TEMPO 1920/1923 4000 SHSNRA BKN012TCU PROB30
TEMPO 2002/2008 BKN005
BECMG 2007/2009 BKN010 PROB40
TEMPO 2009/2024 1800 SNRA BR
BECMG 2011/2013 13004KT


Example: see airport list